Dorchester, Texas
Current Conditions -  °F | °C
As of 4:15 PM on Sunday 21 Dec 2014 (Local Time) from KGYI Reporting Station
Overcast Overcast  
Wind Chill: 44°   Ceiling: 1300
Heat Index: 49°   Visibility: 7mi
Dew Point: 47°   Wind: 12mph
Humidity: 92%   Direction: 150°SSE
Pressure: 29.85"   Gusts: 16mph
Location:  33.5446°N, 96.6964°W
Report Text: KGYI 212215Z AUTO 15010G14KT 7SM BKN013 OVC020 10/08 A2985 RMK AO2 T00950082
Loading
Personal Weather Stations






























Interactive Weather Map New forecast layout! Learn more

10-Day Weather Forecast

Advertisements
Track Severe Weather on mobile